createdAt,value
2023-03-29T00:00:12.546Z,101631.03
2023-03-29T00:02:40.897Z,101627.91
2023-03-29T00:05:12.264Z,101628.00
2023-03-29T00:07:41.177Z,101630.16
2023-03-29T00:10:12.763Z,101617.63
2023-03-29T00:12:42.125Z,101621.72
2023-03-29T00:15:10.956Z,101619.16
2023-03-29T00:17:38.912Z,101620.09
2023-03-29T00:20:10.231Z,101615.75
2023-03-29T00:22:39.775Z,101616.00
2023-03-29T00:25:08.391Z,101612.53
2023-03-29T00:27:38.239Z,101616.09
2023-03-29T00:30:10.041Z,101604.63
2023-03-29T00:32:39.181Z,101602.63
2023-03-29T00:35:07.969Z,101607.56
2023-03-29T00:37:36.806Z,101599.47
2023-03-29T00:40:08.263Z,101602.91
2023-03-29T00:42:38.439Z,101603.00
2023-03-29T00:45:18.769Z,101597.78
2023-03-29T00:47:51.603Z,101596.91
2023-03-29T00:50:25.757Z,101588.63
2023-03-29T00:53:00.857Z,101587.59
2023-03-29T00:55:34.794Z,101588.34
2023-03-29T00:58:07.353Z,101582.16
2023-03-29T01:00:41.826Z,101573.88
2023-03-29T01:03:15.250Z,101573.84
2023-03-29T01:05:49.864Z,101569.69
2023-03-29T01:08:25.635Z,101570.22
2023-03-29T01:11:01.813Z,101557.88
2023-03-29T01:13:42.260Z,101561.50
2023-03-29T01:16:13.234Z,101559.88
2023-03-29T01:18:41.905Z,101558.31
2023-03-29T01:21:23.451Z,101545.72
2023-03-29T01:24:11.075Z,101546.13
2023-03-29T01:26:55.182Z,101539.94
2023-03-29T01:29:33.080Z,101534.72
2023-03-29T01:32:09.709Z,101529.41
2023-03-29T01:34:45.931Z,101523.97
2023-03-29T01:37:21.900Z,101520.38
2023-03-29T01:39:49.876Z,101513.53
2023-03-29T01:42:35.945Z,101515.44
2023-03-29T01:45:20.597Z,101501.00
2023-03-29T01:48:00.505Z,101504.41
2023-03-29T01:50:42.268Z,101497.38
2023-03-29T01:53:18.192Z,101491.22
2023-03-29T01:55:52.393Z,101489.59
2023-03-29T01:58:27.040Z,101477.38
2023-03-29T02:00:56.786Z,101475.59
2023-03-29T02:03:30.858Z,101470.38
2023-03-29T02:06:02.046Z,101469.50
2023-03-29T02:08:31.538Z,101468.75
2023-03-29T02:10:59.816Z,101472.16
2023-03-29T02:13:28.079Z,101464.94
2023-03-29T02:15:59.671Z,101467.06
2023-03-29T02:18:27.692Z,101461.09
2023-03-29T02:20:58.904Z,101459.28
2023-03-29T02:23:34.925Z,101450.84
2023-03-29T02:26:06.589Z,101447.88
2023-03-29T02:28:34.742Z,101444.56
2023-03-29T02:31:13.116Z,101441.81
2023-03-29T02:33:53.115Z,101435.72
2023-03-29T02:36:29.393Z,101435.84
2023-03-29T02:39:01.045Z,101426.06
2023-03-29T02:41:29.931Z,101423.19
2023-03-29T02:44:00.903Z,101422.44
2023-03-29T02:46:30.763Z,101420.84
2023-03-29T02:49:00.872Z,101405.47
2023-03-29T02:51:34.308Z,101408.91
2023-03-29T02:54:09.261Z,101405.78
2023-03-29T02:56:44.781Z,101408.78
2023-03-29T02:59:14.327Z,101412.84
2023-03-29T03:01:43.594Z,101398.16
2023-03-29T03:04:13.203Z,101402.38
2023-03-29T03:06:42.134Z,101393.19
2023-03-29T03:09:10.427Z,101393.19
2023-03-29T03:11:38.392Z,101395.97
2023-03-29T03:14:07.494Z,101386.56
2023-03-29T03:16:36.078Z,101379.47
2023-03-29T03:19:06.008Z,101390.47
2023-03-29T03:21:35.099Z,101381.63
2023-03-29T03:24:03.068Z,101383.66
2023-03-29T03:26:30.993Z,101379.50
2023-03-29T03:28:59.016Z,101374.28
2023-03-29T03:31:28.266Z,101375.28
2023-03-29T03:33:56.629Z,101371.47
2023-03-29T03:36:26.387Z,101365.59
2023-03-29T03:38:54.381Z,101364.00
2023-03-29T03:41:22.684Z,101362.84
2023-03-29T03:43:50.647Z,101366.56
2023-03-29T03:46:19.305Z,101361.28
2023-03-29T03:48:47.968Z,101372.75
2023-03-29T03:51:15.940Z,101372.03
2023-03-29T03:53:45.740Z,101372.22
2023-03-29T03:56:14.081Z,101368.06
2023-03-29T03:58:42.245Z,101370.63
2023-03-29T04:01:10.312Z,101365.09
2023-03-29T04:03:39.188Z,101364.34
2023-03-29T04:06:07.727Z,101369.88
2023-03-29T04:08:35.681Z,101367.84
2023-03-29T04:11:05.410Z,101367.25
2023-03-29T04:13:33.259Z,101369.25
2023-03-29T04:16:01.851Z,101370.50
2023-03-29T04:18:30.035Z,101369.53
2023-03-29T04:20:58.201Z,101354.56
2023-03-29T04:23:26.268Z,101356.56
2023-03-29T04:25:56.587Z,101358.31
2023-03-29T04:28:25.881Z,101360.00
2023-03-29T04:30:53.844Z,101358.91
2023-03-29T04:33:22.519Z,101360.91
2023-03-29T04:35:50.679Z,101357.13
2023-03-29T04:38:23.032Z,101357.31
2023-03-29T04:40:53.726Z,101351.78
2023-03-29T04:43:22.539Z,101351.25
2023-03-29T04:45:51.822Z,101354.13
2023-03-29T04:48:19.737Z,101347.22
2023-03-29T04:50:48.372Z,101349.78
2023-03-29T04:53:20.002Z,101345.44
2023-03-29T04:55:48.311Z,101348.75
2023-03-29T04:58:16.471Z,101344.25
2023-03-29T05:00:45.386Z,101336.28
2023-03-29T05:03:15.276Z,101331.31
2023-03-29T05:05:43.181Z,101330.44
2023-03-29T05:08:12.202Z,101334.50
2023-03-29T05:10:44.396Z,101329.63
2023-03-29T05:13:15.292Z,101333.75
2023-03-29T05:15:43.993Z,101329.19
2023-03-29T05:18:12.000Z,101325.59
2023-03-29T05:20:42.168Z,101320.47
2023-03-29T05:23:10.475Z,101321.56
2023-03-29T05:25:50.244Z,101321.03
2023-03-29T05:28:20.945Z,101317.38
2023-03-29T05:30:49.497Z,101319.63
2023-03-29T05:33:17.585Z,101315.38
2023-03-29T05:35:48.027Z,101316.44
2023-03-29T05:38:16.104Z,101308.56
2023-03-29T05:40:44.522Z,101311.66
2023-03-29T05:43:13.189Z,101310.16
2023-03-29T05:45:41.469Z,101312.09
2023-03-29T05:48:11.618Z,101307.94
2023-03-29T05:50:39.648Z,101314.94
2023-03-29T05:53:09.484Z,101313.22
2023-03-29T05:55:37.462Z,101300.41
2023-03-29T05:58:05.412Z,101306.59
2023-03-29T06:00:38.021Z,101308.38
2023-03-29T06:03:17.988Z,101303.94
2023-03-29T06:05:56.681Z,101307.34
2023-03-29T06:08:28.640Z,101310.56
2023-03-29T06:11:04.511Z,101307.09
2023-03-29T06:13:34.744Z,101308.94
2023-03-29T06:16:04.207Z,101306.41
2023-03-29T06:18:32.360Z,101302.69
2023-03-29T06:21:02.275Z,101304.28
2023-03-29T06:23:32.182Z,101300.50
2023-03-29T06:26:03.379Z,101295.28
2023-03-29T06:28:31.800Z,101301.25
2023-03-29T06:31:03.890Z,101295.78
2023-03-29T06:33:34.186Z,101297.44
2023-03-29T06:36:03.504Z,101286.81
2023-03-29T06:38:34.045Z,101290.13
2023-03-29T06:41:04.624Z,101288.22
2023-03-29T06:43:38.279Z,101287.16
2023-03-29T06:46:11.607Z,101295.53
2023-03-29T06:48:41.183Z,101287.78
2023-03-29T06:51:09.916Z,101288.50
2023-03-29T06:53:39.290Z,101278.19
2023-03-29T06:56:09.337Z,101286.59
2023-03-29T06:58:37.911Z,101290.50
2023-03-29T07:01:07.127Z,101283.78
2023-03-29T07:03:38.625Z,101287.56
2023-03-29T07:06:11.879Z,101293.03
2023-03-29T07:08:49.819Z,101282.00
2023-03-29T07:11:18.837Z,101291.94
2023-03-29T07:13:51.009Z,101288.81
2023-03-29T07:16:22.559Z,101292.69
2023-03-29T07:18:53.412Z,101294.13
2023-03-29T07:21:21.469Z,101290.13
2023-03-29T07:23:53.350Z,101291.94
2023-03-29T07:26:28.669Z,101283.28
2023-03-29T07:28:58.785Z,101279.47
2023-03-29T07:31:29.342Z,101278.31
2023-03-29T07:33:57.572Z,101276.09
2023-03-29T07:36:28.536Z,101283.44
2023-03-29T07:39:01.825Z,101282.88
2023-03-29T07:41:29.942Z,101275.28
2023-03-29T07:43:58.889Z,101276.38
2023-03-29T07:46:27.102Z,101265.41
2023-03-29T07:48:56.684Z,101265.34
2023-03-29T07:51:26.912Z,101278.41
2023-03-29T07:53:55.080Z,101276.72
2023-03-29T07:56:24.770Z,101276.00
2023-03-29T07:58:52.647Z,101277.50
2023-03-29T08:01:22.914Z,101269.06
2023-03-29T08:03:50.942Z,101277.16
2023-03-29T08:06:19.182Z,101273.16
2023-03-29T08:08:48.440Z,101279.16
2023-03-29T08:11:16.394Z,101280.22
2023-03-29T08:13:46.282Z,101274.34
2023-03-29T08:16:14.678Z,101273.28
2023-03-29T08:18:42.755Z,101269.41
2023-03-29T08:21:11.093Z,101274.59
2023-03-29T08:23:39.186Z,101270.50
2023-03-29T08:26:08.672Z,101266.63
2023-03-29T08:28:38.116Z,101269.97
2023-03-29T08:31:11.218Z,101267.25
2023-03-29T08:33:39.436Z,101265.94
2023-03-29T08:36:08.433Z,101254.97
2023-03-29T08:38:39.444Z,101246.47
2023-03-29T08:41:39.910Z,101237.91
2023-03-29T08:44:28.080Z,101242.22
2023-03-29T08:47:10.069Z,101237.72
2023-03-29T08:49:43.930Z,101245.03
2023-03-29T08:52:23.839Z,101234.72
2023-03-29T08:54:57.172Z,101242.09
2023-03-29T08:57:32.979Z,101225.81
2023-03-29T09:00:06.896Z,101234.03
2023-03-29T09:02:37.433Z,101238.56
2023-03-29T09:05:20.405Z,101228.13
2023-03-29T09:07:48.737Z,101226.00
2023-03-29T09:10:19.366Z,101220.53
2023-03-29T09:13:17.651Z,101213.00
2023-03-29T09:15:56.801Z,101222.34
2023-03-29T09:18:39.928Z,101223.25
2023-03-29T09:21:21.496Z,101226.38
2023-03-29T09:24:30.623Z,101223.56
2023-03-29T09:27:10.073Z,101229.38
2023-03-29T09:30:04.619Z,101224.97
2023-03-29T09:32:42.333Z,101218.22
2023-03-29T09:35:22.754Z,101215.22
2023-03-29T09:37:54.896Z,101215.81
2023-03-29T09:40:29.595Z,101214.69
2023-03-29T09:42:59.238Z,101206.19
2023-03-29T09:45:30.638Z,101206.72
2023-03-29T09:48:12.525Z,101203.38
2023-03-29T09:50:51.196Z,101207.91
2023-03-29T09:53:30.468Z,101212.38
2023-03-29T09:55:58.899Z,101204.97
2023-03-29T09:58:32.810Z,101200.25
2023-03-29T10:01:08.733Z,101185.88
2023-03-29T10:03:41.376Z,101194.47
2023-03-29T10:06:15.689Z,101191.59
2023-03-29T10:08:51.367Z,101186.16
2023-03-29T10:11:24.660Z,101180.84
2023-03-29T10:13:57.432Z,101176.00
2023-03-29T10:16:31.234Z,101176.09
2023-03-29T10:18:59.969Z,101173.16
2023-03-29T10:21:32.414Z,101167.84
2023-03-29T10:24:00.412Z,101165.50
2023-03-29T10:26:33.816Z,101169.84
2023-03-29T10:29:08.344Z,101165.91
2023-03-29T10:31:41.491Z,101165.88
2023-03-29T10:34:16.468Z,101159.72
2023-03-29T10:36:54.174Z,101138.88
2023-03-29T10:39:34.310Z,101150.75
2023-03-29T10:42:05.572Z,101148.84
2023-03-29T10:44:38.744Z,101149.50
2023-03-29T10:47:20.232Z,101140.16
2023-03-29T10:49:56.944Z,101145.28
2023-03-29T10:52:31.706Z,101144.00
2023-03-29T10:55:02.684Z,101143.22
2023-03-29T10:57:51.148Z,101135.47
2023-03-29T11:00:33.272Z,101129.41
2023-03-29T11:03:25.003Z,101130.94
2023-03-29T11:06:03.041Z,101132.41
2023-03-29T11:08:52.544Z,101127.31
2023-03-29T11:12:12.168Z,101129.44
2023-03-29T11:15:01.551Z,101128.53
2023-03-29T11:17:52.700Z,101132.06
2023-03-29T11:20:31.115Z,101128.28
2023-03-29T11:23:15.034Z,101129.84
2023-03-29T11:26:04.015Z,101119.97
2023-03-29T11:28:43.354Z,101124.91
2023-03-29T11:31:24.875Z,101115.88
2023-03-29T11:34:14.267Z,101112.88
2023-03-29T11:36:55.078Z,101109.56
2023-03-29T11:39:39.426Z,101095.19
2023-03-29T11:42:18.150Z,101104.81
2023-03-29T11:44:54.630Z,101101.56
2023-03-29T11:47:28.997Z,101102.31
2023-03-29T11:50:04.782Z,101098.59
2023-03-29T11:52:40.729Z,101092.59
2023-03-29T11:55:18.081Z,101095.81
2023-03-29T11:57:56.617Z,101092.75
2023-03-29T12:00:30.407Z,101092.81
2023-03-29T12:03:08.259Z,101103.56
2023-03-29T12:05:44.267Z,101099.25
2023-03-29T12:08:21.203Z,101094.31
2023-03-29T12:10:58.353Z,101101.94
2023-03-29T12:13:34.263Z,101093.19
2023-03-29T12:16:12.446Z,101095.28
2023-03-29T12:18:45.398Z,101077.88
2023-03-29T12:21:45.809Z,101083.69
2023-03-29T12:24:20.615Z,101082.75
2023-03-29T12:27:26.125Z,101083.41
2023-03-29T12:30:54.132Z,101084.44
2023-03-29T12:34:37.521Z,101082.66
2023-03-29T12:37:43.845Z,101080.25
2023-03-29T12:40:17.946Z,101069.94
2023-03-29T12:42:57.630Z,101057.31
2023-03-29T12:46:28.917Z,101066.19
2023-03-29T12:49:13.386Z,101065.28
2023-03-29T12:51:56.345Z,101061.75
2023-03-29T12:54:49.910Z,101060.28
2023-03-29T12:57:56.359Z,101060.25
2023-03-29T13:01:25.306Z,101043.88
2023-03-29T13:04:18.950Z,101044.38
2023-03-29T13:07:05.997Z,101038.19
2023-03-29T13:10:28.102Z,101043.22
2023-03-29T13:12:57.863Z,101046.72
2023-03-29T13:15:29.291Z,101040.13
2023-03-29T13:18:20.177Z,101027.94
2023-03-29T13:21:02.843Z,101039.25
2023-03-29T13:23:45.876Z,101045.53
2023-03-29T13:27:05.832Z,101037.94
2023-03-29T13:34:01.377Z,101045.69
2023-03-29T13:40:05.871Z,101046.56
2023-03-29T13:42:50.259Z,101034.19
2023-03-29T13:45:30.864Z,101042.34
2023-03-29T13:48:30.711Z,101026.94
2023-03-29T13:51:27.640Z,101027.47
2023-03-29T13:54:03.015Z,101028.56
2023-03-29T13:56:54.470Z,101020.75
2023-03-29T13:59:45.901Z,101016.25
2023-03-29T14:02:37.233Z,101026.50
2023-03-29T14:05:14.354Z,101027.91
2023-03-29T14:07:50.131Z,101017.66
2023-03-29T14:10:31.274Z,101028.38
2023-03-29T14:13:06.512Z,101026.91
2023-03-29T14:15:58.493Z,101019.84
2023-03-29T14:18:32.960Z,101022.34
2023-03-29T14:21:02.868Z,101027.47
2023-03-29T14:23:43.639Z,101028.16
2023-03-29T14:26:27.421Z,101028.25
2023-03-29T14:29:27.106Z,101024.09
2023-03-29T14:32:07.908Z,101024.66
2023-03-29T14:34:36.166Z,101018.78
2023-03-29T14:37:05.612Z,101017.94
2023-03-29T14:39:36.804Z,101012.25
2023-03-29T14:42:14.452Z,101014.94
2023-03-29T14:44:44.366Z,101009.94
2023-03-29T14:47:22.094Z,101014.00
2023-03-29T14:49:51.341Z,101002.91
2023-03-29T14:52:21.052Z,101008.59
2023-03-29T14:54:58.008Z,101012.88
2023-03-29T14:57:37.851Z,101010.69
2023-03-29T15:00:27.872Z,101001.44
2023-03-29T15:02:58.794Z,101001.84
2023-03-29T15:05:38.610Z,101002.91
2023-03-29T15:08:09.966Z,101003.59
2023-03-29T15:10:43.002Z,101006.06
2023-03-29T15:13:28.525Z,100997.97
2023-03-29T15:16:04.388Z,101003.41
2023-03-29T15:18:41.719Z,101002.22
2023-03-29T15:21:13.919Z,100995.47
2023-03-29T15:23:51.882Z,100992.94
2023-03-29T15:26:26.292Z,100988.31
2023-03-29T15:29:03.835Z,100983.94
2023-03-29T15:31:36.831Z,100981.03
2023-03-29T15:34:09.250Z,100966.63
2023-03-29T15:36:43.174Z,100967.94
2023-03-29T15:39:14.322Z,100962.91
2023-03-29T15:41:45.019Z,100952.78
2023-03-29T15:44:17.252Z,100954.47
2023-03-29T15:46:45.433Z,100934.09
2023-03-29T15:49:14.208Z,100934.91
2023-03-29T15:51:42.731Z,100928.47
2023-03-29T15:54:10.908Z,100929.31
2023-03-29T15:56:52.285Z,100931.59
2023-03-29T15:59:20.489Z,100921.47
2023-03-29T16:01:49.592Z,100919.13
2023-03-29T16:04:22.002Z,100924.88
2023-03-29T16:06:53.541Z,100929.91
2023-03-29T16:09:23.929Z,100922.47
2023-03-29T16:11:55.737Z,100929.91
2023-03-29T16:14:28.185Z,100933.41
2023-03-29T16:16:59.348Z,100926.53
2023-03-29T16:19:29.973Z,100922.31
2023-03-29T16:22:01.392Z,100922.97
2023-03-29T16:24:34.459Z,100929.91
2023-03-29T16:27:05.395Z,100927.53
2023-03-29T16:29:33.464Z,100925.84
2023-03-29T16:32:05.501Z,100927.69
2023-03-29T16:34:35.867Z,100928.50
2023-03-29T16:49:48.555Z,100932.66
2023-03-29T16:52:17.598Z,100929.97
2023-03-29T16:54:47.365Z,100918.34
2023-03-29T16:57:16.482Z,100927.59
2023-03-29T16:59:47.660Z,100920.72
2023-03-29T17:02:15.849Z,100920.00
2023-03-29T17:04:46.424Z,100916.81
2023-03-29T17:07:15.710Z,100913.94
2023-03-29T17:09:46.354Z,100908.88
2023-03-29T17:12:15.298Z,100910.56
2023-03-29T17:14:47.777Z,100909.72
2023-03-29T17:17:16.281Z,100903.19
2023-03-29T17:19:49.004Z,100901.28
2023-03-29T17:22:17.054Z,100896.22
2023-03-29T17:24:45.031Z,100905.00
2023-03-29T17:27:12.949Z,100905.47
2023-03-29T17:29:40.875Z,100897.56
2023-03-29T17:32:08.861Z,100900.06
2023-03-29T17:34:37.263Z,100902.97
2023-03-29T17:37:06.717Z,100902.47
2023-03-29T17:39:37.492Z,100903.28
2023-03-29T17:42:06.461Z,100913.25
2023-03-29T17:44:34.487Z,100905.16
2023-03-29T17:47:02.857Z,100897.72
2023-03-29T17:49:31.786Z,100888.94
2023-03-29T17:52:00.418Z,100894.50
2023-03-29T17:54:32.111Z,100893.34
2023-03-29T17:57:01.603Z,100895.84
2023-03-29T17:59:30.962Z,100902.06
2023-03-29T18:02:02.458Z,100899.53
2023-03-29T18:04:30.580Z,100906.63
2023-03-29T18:07:00.267Z,100904.59
2023-03-29T18:09:31.043Z,100911.78
2023-03-29T18:12:00.349Z,100905.78
2023-03-29T18:14:29.024Z,100897.53
2023-03-29T18:16:58.767Z,100901.72
2023-03-29T18:19:28.072Z,100900.56
2023-03-29T18:21:57.491Z,100902.56
2023-03-29T18:24:27.864Z,100901.00
2023-03-29T18:26:58.460Z,100906.72
2023-03-29T18:29:26.905Z,100908.75
2023-03-29T18:31:55.749Z,100905.41
2023-03-29T18:34:24.152Z,100909.44
2023-03-29T18:36:53.619Z,100905.31
2023-03-29T18:39:21.949Z,100911.03
2023-03-29T18:41:49.858Z,100908.00
2023-03-29T18:44:22.348Z,100905.97
2023-03-29T18:46:50.331Z,100906.47
2023-03-29T18:49:19.051Z,100913.00
2023-03-29T18:51:47.562Z,100909.81
2023-03-29T18:54:15.589Z,100905.97
2023-03-29T18:56:43.635Z,100918.94
2023-03-29T18:59:11.585Z,100921.31
2023-03-29T19:01:41.916Z,100917.25
2023-03-29T19:04:12.026Z,100916.59
2023-03-29T19:06:42.903Z,100905.63
2023-03-29T19:09:11.550Z,100908.22
2023-03-29T19:11:39.594Z,100904.13
2023-03-29T19:14:09.555Z,100892.34
2023-03-29T19:16:41.476Z,100895.72
2023-03-29T19:19:13.463Z,100891.63
2023-03-29T19:21:42.749Z,100887.56
2023-03-29T19:24:12.523Z,100895.19
2023-03-29T19:26:41.330Z,100888.13
2023-03-29T19:29:12.814Z,100890.31
2023-03-29T19:31:40.866Z,100888.91
2023-03-29T19:34:11.310Z,100890.84
2023-03-29T19:36:39.657Z,100888.16
2023-03-29T19:39:08.124Z,100887.63
2023-03-29T19:41:36.043Z,100885.41
2023-03-29T19:44:05.209Z,100881.19
2023-03-29T19:46:33.317Z,100883.38
2023-03-29T19:49:03.743Z,100878.47
2023-03-29T19:51:34.345Z,100880.16
2023-03-29T19:54:02.739Z,100875.63
2023-03-29T19:56:30.671Z,100880.34
2023-03-29T19:58:58.558Z,100876.97
2023-03-29T20:01:27.244Z,100877.28
2023-03-29T20:03:55.437Z,100864.84
2023-03-29T20:06:23.497Z,100859.78
2023-03-29T20:08:53.848Z,100864.16
2023-03-29T20:11:24.144Z,100852.03
2023-03-29T20:13:52.220Z,100851.19
2023-03-29T20:16:24.233Z,100854.72
2023-03-29T20:18:53.930Z,100859.78
2023-03-29T20:21:21.839Z,100849.69
2023-03-29T20:23:49.799Z,100848.72
2023-03-29T20:26:18.994Z,100853.41
2023-03-29T20:28:46.900Z,100848.38
2023-03-29T20:31:14.891Z,100851.25
2023-03-29T20:33:44.365Z,100840.28
2023-03-29T20:36:13.378Z,100836.91
2023-03-29T20:38:41.377Z,100831.19
2023-03-29T20:41:10.771Z,100834.41
2023-03-29T20:43:41.249Z,100825.81
2023-03-29T20:46:22.590Z,100823.31
2023-03-29T20:48:54.067Z,100819.41
2023-03-29T20:51:22.562Z,100819.41
2023-03-29T20:53:50.648Z,100820.44
2023-03-29T20:56:18.940Z,100818.25
2023-03-29T20:58:48.255Z,100808.69
2023-03-29T21:01:16.228Z,100811.22
2023-03-29T21:03:44.194Z,100810.97
2023-03-29T21:06:13.958Z,100814.34
2023-03-29T21:08:42.472Z,100808.97
2023-03-29T21:11:12.957Z,100802.91
2023-03-29T21:13:40.985Z,100802.91
2023-03-29T21:16:11.060Z,100805.59
2023-03-29T21:18:40.497Z,100803.25
2023-03-29T21:21:08.877Z,100800.22
2023-03-29T21:23:37.005Z,100796.03
2023-03-29T21:26:07.274Z,100792.66
2023-03-29T21:28:35.482Z,100797.53
2023-03-29T21:31:06.282Z,100786.75
2023-03-29T21:33:37.325Z,100779.34
2023-03-29T21:36:06.146Z,100770.75
2023-03-29T21:38:34.135Z,100776.66
2023-03-29T21:41:02.537Z,100762.53
2023-03-29T21:43:30.662Z,100766.53
2023-03-29T21:45:59.176Z,100760.16
2023-03-29T21:48:27.191Z,100759.66
2023-03-29T21:50:56.496Z,100764.88
2023-03-29T21:53:25.094Z,100756.63
2023-03-29T21:55:53.687Z,100756.63
2023-03-29T21:58:21.768Z,100757.47
2023-03-29T22:00:50.046Z,100748.06
2023-03-29T22:03:18.226Z,100747.06
2023-03-29T22:05:59.496Z,100744.88
2023-03-29T22:08:27.590Z,100744.03
2023-03-29T22:10:57.115Z,100741.19
2023-03-29T22:13:26.865Z,100745.00
2023-03-29T22:15:59.118Z,100740.69
2023-03-29T22:18:30.067Z,100729.22
2023-03-29T22:20:59.450Z,100737.16
2023-03-29T22:23:27.750Z,100728.75
2023-03-29T22:25:55.604Z,100738.84
2023-03-29T22:28:23.486Z,100735.63
2023-03-29T22:30:51.433Z,100738.31
2023-03-29T22:33:19.303Z,100723.53
2023-03-29T22:35:47.181Z,100728.75
2023-03-29T22:38:16.508Z,100725.88
2023-03-29T22:40:44.483Z,100727.88
2023-03-29T22:43:12.526Z,100723.72
2023-03-29T22:45:40.587Z,100719.13
2023-03-29T22:48:08.483Z,100718.63
2023-03-29T22:50:36.608Z,100715.13
2023-03-29T22:53:04.916Z,100707.34
2023-03-29T22:55:34.212Z,100713.41
2023-03-29T22:58:02.114Z,100710.22
2023-03-29T23:00:31.566Z,100716.44
2023-03-29T23:02:59.932Z,100711.06
2023-03-29T23:05:27.907Z,100706.69
2023-03-29T23:07:56.152Z,100703.69
2023-03-29T23:10:28.743Z,100697.94
2023-03-29T23:13:08.564Z,100690.22
2023-03-29T23:15:38.044Z,100688.69
2023-03-29T23:18:06.965Z,100699.25
2023-03-29T23:20:34.983Z,100698.56
2023-03-29T23:23:02.892Z,100692.81
2023-03-29T23:25:31.360Z,100688.47
2023-03-29T23:28:00.869Z,100686.94
2023-03-29T23:30:30.829Z,100692.47
2023-03-29T23:33:00.005Z,100688.41
2023-03-29T23:35:27.962Z,100684.03
2023-03-29T23:37:55.922Z,100688.25
2023-03-29T23:40:24.470Z,100680.41
2023-03-29T23:42:52.941Z,100671.47
2023-03-29T23:45:22.215Z,100669.47
2023-03-29T23:47:50.142Z,100679.22
2023-03-29T23:50:18.397Z,100668.97
2023-03-29T23:52:47.045Z,100675.50
2023-03-29T23:55:16.352Z,100668.97
2023-03-29T23:57:44.355Z,100673.47
